sensor_id;sensor_type;location;lat;lon;timestamp;temperature;humidity
6178;DHT22;3122;48.208;11.174;2023-03-31T00:02:55;7.50;1.00
6178;DHT22;3122;48.208;11.174;2023-03-31T00:07:57;7.50;1.00
6178;DHT22;3122;48.208;11.174;2023-03-31T00:13:01;7.50;1.00
6178;DHT22;3122;48.208;11.174;2023-03-31T00:18:02;7.50;1.00
6178;DHT22;3122;48.208;11.174;2023-03-31T00:23:04;7.50;1.00
6178;DHT22;3122;48.208;11.174;2023-03-31T00:28:09;7.50;1.00
6178;DHT22;3122;48.208;11.174;2023-03-31T00:33:10;7.60;1.00
6178;DHT22;3122;48.208;11.174;2023-03-31T00:38:11;7.60;1.00
6178;DHT22;3122;48.208;11.174;2023-03-31T00:43:33;7.60;1.00
6178;DHT22;3122;48.208;11.174;2023-03-31T00:48:35;7.60;1.00
6178;DHT22;3122;48.208;11.174;2023-03-31T00:53:37;7.50;1.00
6178;DHT22;3122;48.208;11.174;2023-03-31T00:58:39;7.60;1.00
6178;DHT22;3122;48.208;11.174;2023-03-31T01:03:43;7.50;1.00
6178;DHT22;3122;48.208;11.174;2023-03-31T01:08:47;7.50;1.00
6178;DHT22;3122;48.208;11.174;2023-03-31T01:13:50;7.50;1.00
6178;DHT22;3122;48.208;11.174;2023-03-31T01:18:52;7.60;1.00
6178;DHT22;3122;48.208;11.174;2023-03-31T01:39:55;7.80;1.00
6178;DHT22;3122;48.208;11.174;2023-03-31T01:56:07;7.80;1.00
6178;DHT22;3122;48.208;11.174;2023-03-31T02:01:29;7.80;1.00
6178;DHT22;3122;48.208;11.174;2023-03-31T02:06:35;7.80;1.00
6178;DHT22;3122;48.208;11.174;2023-03-31T02:11:39;7.80;1.00
6178;DHT22;3122;48.208;11.174;2023-03-31T02:16:42;7.70;1.00
6178;DHT22;3122;48.208;11.174;2023-03-31T02:21:47;7.70;1.00
6178;DHT22;3122;48.208;11.174;2023-03-31T02:32:37;7.90;1.00
6178;DHT22;3122;48.208;11.174;2023-03-31T02:37:39;8.10;1.00
6178;DHT22;3122;48.208;11.174;2023-03-31T02:42:40;8.00;1.00
6178;DHT22;3122;48.208;11.174;2023-03-31T02:47:41;8.10;1.00
6178;DHT22;3122;48.208;11.174;2023-03-31T02:53:04;8.00;1.00
6178;DHT22;3122;48.208;11.174;2023-03-31T02:58:37;7.90;1.00
6178;DHT22;3122;48.208;11.174;2023-03-31T03:15:12;8.20;1.00
6178;DHT22;3122;48.208;11.174;2023-03-31T03:20:15;8.20;1.00
6178;DHT22;3122;48.208;11.174;2023-03-31T03:25:18;8.50;1.00
6178;DHT22;3122;48.208;11.174;2023-03-31T03:30:20;8.60;1.00
6178;DHT22;3122;48.208;11.174;2023-03-31T03:35:20;8.70;1.00
6178;DHT22;3122;48.208;11.174;2023-03-31T03:40:21;8.60;1.00
6178;DHT22;3122;48.208;11.174;2023-03-31T03:45:21;8.60;1.00
6178;DHT22;3122;48.208;11.174;2023-03-31T03:50:22;8.60;1.00
6178;DHT22;3122;48.208;11.174;2023-03-31T03:55:23;8.50;1.00
6178;DHT22;3122;48.208;11.174;2023-03-31T04:00:23;8.50;1.00
6178;DHT22;3122;48.208;11.174;2023-03-31T04:05:24;8.40;1.00
6178;DHT22;3122;48.208;11.174;2023-03-31T04:10:25;8.30;1.00
6178;DHT22;3122;48.208;11.174;2023-03-31T04:15:25;8.20;1.00
6178;DHT22;3122;48.208;11.174;2023-03-31T04:20:26;8.10;1.00
6178;DHT22;3122;48.208;11.174;2023-03-31T04:25:29;8.00;1.00
6178;DHT22;3122;48.208;11.174;2023-03-31T04:30:30;8.00;1.00
6178;DHT22;3122;48.208;11.174;2023-03-31T04:35:31;8.00;1.00
6178;DHT22;3122;48.208;11.174;2023-03-31T04:40:50;8.00;1.00
6178;DHT22;3122;48.208;11.174;2023-03-31T04:45:51;7.80;1.00
6178;DHT22;3122;48.208;11.174;2023-03-31T04:50:51;7.80;1.00
6178;DHT22;3122;48.208;11.174;2023-03-31T04:55:52;7.80;1.00
6178;DHT22;3122;48.208;11.174;2023-03-31T05:00:53;7.90;1.00
6178;DHT22;3122;48.208;11.174;2023-03-31T05:05:53;7.90;1.00
6178;DHT22;3122;48.208;11.174;2023-03-31T05:10:54;7.90;1.00
6178;DHT22;3122;48.208;11.174;2023-03-31T05:15:55;7.80;1.00
6178;DHT22;3122;48.208;11.174;2023-03-31T05:20:55;7.80;1.00
6178;DHT22;3122;48.208;11.174;2023-03-31T05:25:56;7.80;1.00
6178;DHT22;3122;48.208;11.174;2023-03-31T05:30:59;7.80;1.00
6178;DHT22;3122;48.208;11.174;2023-03-31T05:36:01;7.80;1.00
6178;DHT22;3122;48.208;11.174;2023-03-31T05:41:01;7.80;1.00
6178;DHT22;3122;48.208;11.174;2023-03-31T05:46:02;7.70;1.00
6178;DHT22;3122;48.208;11.174;2023-03-31T05:51:04;7.70;1.00
6178;DHT22;3122;48.208;11.174;2023-03-31T05:56:05;7.70;1.00
6178;DHT22;3122;48.208;11.174;2023-03-31T06:01:12;7.90;1.00
6178;DHT22;3122;48.208;11.174;2023-03-31T06:06:13;7.90;1.00
6178;DHT22;3122;48.208;11.174;2023-03-31T06:11:18;8.10;1.00
6178;DHT22;3122;48.208;11.174;2023-03-31T06:16:19;8.10;1.00
6178;DHT22;3122;48.208;11.174;2023-03-31T06:21:19;8.00;1.00
6178;DHT22;3122;48.208;11.174;2023-03-31T06:26:21;8.20;1.00
6178;DHT22;3122;48.208;11.174;2023-03-31T06:31:23;8.20;1.00
6178;DHT22;3122;48.208;11.174;2023-03-31T06:36:24;8.20;1.00
6178;DHT22;3122;48.208;11.174;2023-03-31T06:41:24;8.10;1.00
6178;DHT22;3122;48.208;11.174;2023-03-31T06:46:25;8.10;1.00
6178;DHT22;3122;48.208;11.174;2023-03-31T06:51:26;8.10;1.00
6178;DHT22;3122;48.208;11.174;2023-03-31T06:56:27;8.10;1.00
6178;DHT22;3122;48.208;11.174;2023-03-31T07:01:27;8.00;1.00
6178;DHT22;3122;48.208;11.174;2023-03-31T07:06:28;8.00;1.00
6178;DHT22;3122;48.208;11.174;2023-03-31T07:11:28;8.00;1.00
6178;DHT22;3122;48.208;11.174;2023-03-31T07:16:29;8.10;1.00
6178;DHT22;3122;48.208;11.174;2023-03-31T07:21:30;8.20;1.00
6178;DHT22;3122;48.208;11.174;2023-03-31T07:26:31;8.20;1.00
6178;DHT22;3122;48.208;11.174;2023-03-31T07:31:34;8.10;1.00
6178;DHT22;3122;48.208;11.174;2023-03-31T07:36:35;8.10;1.00
6178;DHT22;3122;48.208;11.174;2023-03-31T07:41:35;8.30;1.00
6178;DHT22;3122;48.208;11.174;2023-03-31T07:46:37;8.40;1.00
6178;DHT22;3122;48.208;11.174;2023-03-31T07:51:38;8.40;1.00
6178;DHT22;3122;48.208;11.174;2023-03-31T07:56:39;8.50;1.00
6178;DHT22;3122;48.208;11.174;2023-03-31T08:01:39;8.60;1.00
6178;DHT22;3122;48.208;11.174;2023-03-31T08:06:40;8.80;1.00
6178;DHT22;3122;48.208;11.174;2023-03-31T08:11:41;9.00;1.00
6178;DHT22;3122;48.208;11.174;2023-03-31T08:16:41;9.10;1.00
6178;DHT22;3122;48.208;11.174;2023-03-31T08:21:42;9.20;1.00
6178;DHT22;3122;48.208;11.174;2023-03-31T08:26:43;9.20;1.00
6178;DHT22;3122;48.208;11.174;2023-03-31T08:31:43;9.20;1.00
6178;DHT22;3122;48.208;11.174;2023-03-31T08:36:44;9.20;1.00
6178;DHT22;3122;48.208;11.174;2023-03-31T08:41:59;9.60;1.00
6178;DHT22;3122;48.208;11.174;2023-03-31T08:47:01;10.10;1.00
6178;DHT22;3122;48.208;11.174;2023-03-31T08:52:04;10.60;1.00
6178;DHT22;3122;48.208;11.174;2023-03-31T08:57:21;10.70;1.00
6178;DHT22;3122;48.208;11.174;2023-03-31T09:07:42;10.50;1.00
6178;DHT22;3122;48.208;11.174;2023-03-31T09:18:24;10.50;1.00
6178;DHT22;3122;48.208;11.174;2023-03-31T09:23:37;10.80;1.00
6178;DHT22;3122;48.208;11.174;2023-03-31T09:28:40;11.20;1.00
6178;DHT22;3122;48.208;11.174;2023-03-31T09:33:44;11.30;1.00
6178;DHT22;3122;48.208;11.174;2023-03-31T09:38:46;11.30;1.00
6178;DHT22;3122;48.208;11.174;2023-03-31T09:43:47;11.60;1.00
6178;DHT22;3122;48.208;11.174;2023-03-31T09:49:13;11.60;1.00
6178;DHT22;3122;48.208;11.174;2023-03-31T09:54:45;11.60;1.00
6178;DHT22;3122;48.208;11.174;2023-03-31T09:59:49;11.70;1.00
6178;DHT22;3122;48.208;11.174;2023-03-31T10:04:51;11.90;1.00
6178;DHT22;3122;48.208;11.174;2023-03-31T10:09:55;12.20;1.00
6178;DHT22;3122;48.208;11.174;2023-03-31T10:15:21;12.50;1.00
6178;DHT22;3122;48.208;11.174;2023-03-31T10:20:38;12.90;1.00
6178;DHT22;3122;48.208;11.174;2023-03-31T10:25:39;13.10;1.00
6178;DHT22;3122;48.208;11.174;2023-03-31T10:30:39;13.30;1.00
6178;DHT22;3122;48.208;11.174;2023-03-31T10:35:47;13.40;1.00
6178;DHT22;3122;48.208;11.174;2023-03-31T10:40:52;13.60;1.00
6178;DHT22;3122;48.208;11.174;2023-03-31T10:46:00;13.50;1.00
6178;DHT22;3122;48.208;11.174;2023-03-31T11:07:24;13.40;1.00
6178;DHT22;3122;48.208;11.174;2023-03-31T11:17:51;11.90;1.00
6178;DHT22;3122;48.208;11.174;2023-03-31T11:23:20;11.10;1.00
6178;DHT22;3122;48.208;11.174;2023-03-31T11:28:51;11.00;1.00
6178;DHT22;3122;48.208;11.174;2023-03-31T11:39:46;11.30;1.00
6178;DHT22;3122;48.208;11.174;2023-03-31T11:44:49;11.40;1.00
6178;DHT22;3122;48.208;11.174;2023-03-31T11:49:59;11.60;1.00
6178;DHT22;3122;48.208;11.174;2023-03-31T11:55:19;12.20;1.00
6178;DHT22;3122;48.208;11.174;2023-03-31T12:00:26;12.60;1.00
6178;DHT22;3122;48.208;11.174;2023-03-31T12:05:31;12.50;1.00
6178;DHT22;3122;48.208;11.174;2023-03-31T12:10:37;12.50;1.00
6178;DHT22;3122;48.208;11.174;2023-03-31T12:15:40;12.50;1.00
6178;DHT22;3122;48.208;11.174;2023-03-31T12:20:47;12.90;1.00
6178;DHT22;3122;48.208;11.174;2023-03-31T12:31:17;13.10;1.00
6178;DHT22;3122;48.208;11.174;2023-03-31T12:36:34;13.20;1.00
6178;DHT22;3122;48.208;11.174;2023-03-31T12:41:55;13.20;1.00
6178;DHT22;3122;48.208;11.174;2023-03-31T12:52:35;12.80;1.00
6178;DHT22;3122;48.208;11.174;2023-03-31T12:57:39;12.60;1.00
6178;DHT22;3122;48.208;11.174;2023-03-31T13:02:40;12.40;1.00
6178;DHT22;3122;48.208;11.174;2023-03-31T13:07:41;12.30;1.00
6178;DHT22;3122;48.208;11.174;2023-03-31T13:17:58;11.60;1.00
6178;DHT22;3122;48.208;11.174;2023-03-31T13:23:20;11.30;1.00
6178;DHT22;3122;48.208;11.174;2023-03-31T13:33:47;12.10;1.00
6178;DHT22;3122;48.208;11.174;2023-03-31T13:39:19;12.00;1.00
6178;DHT22;3122;48.208;11.174;2023-03-31T13:55:27;10.60;1.00
6178;DHT22;3122;48.208;11.174;2023-03-31T14:11:24;10.90;1.00
6178;DHT22;3122;48.208;11.174;2023-03-31T14:16:31;10.80;1.00
6178;DHT22;3122;48.208;11.174;2023-03-31T14:21:42;10.80;1.00
6178;DHT22;3122;48.208;11.174;2023-03-31T14:27:18;10.90;1.00
6178;DHT22;3122;48.208;11.174;2023-03-31T14:37:33;10.00;1.00
6178;DHT22;3122;48.208;11.174;2023-03-31T14:42:38;9.00;1.00
6178;DHT22;3122;48.208;11.174;2023-03-31T14:47:40;8.70;1.00
6178;DHT22;3122;48.208;11.174;2023-03-31T14:52:46;8.70;1.00
6178;DHT22;3122;48.208;11.174;2023-03-31T14:57:47;9.00;1.00
6178;DHT22;3122;48.208;11.174;2023-03-31T15:02:50;9.40;1.00
6178;DHT22;3122;48.208;11.174;2023-03-31T15:07:56;9.70;1.00
6178;DHT22;3122;48.208;11.174;2023-03-31T15:12:57;10.00;1.00
6178;DHT22;3122;48.208;11.174;2023-03-31T15:17:57;10.40;1.00
6178;DHT22;3122;48.208;11.174;2023-03-31T15:22:59;10.60;1.00
6178;DHT22;3122;48.208;11.174;2023-03-31T15:28:03;10.90;1.00
6178;DHT22;3122;48.208;11.174;2023-03-31T15:33:07;10.80;1.00
6178;DHT22;3122;48.208;11.174;2023-03-31T15:38:16;10.70;1.00
6178;DHT22;3122;48.208;11.174;2023-03-31T15:48:35;10.70;1.00
6178;DHT22;3122;48.208;11.174;2023-03-31T15:53:43;10.60;1.00
6178;DHT22;3122;48.208;11.174;2023-03-31T16:03:56;10.80;1.00
6178;DHT22;3122;48.208;11.174;2023-03-31T16:09:07;10.80;1.00
6178;DHT22;3122;48.208;11.174;2023-03-31T16:14:24;10.90;1.00
6178;DHT22;3122;48.208;11.174;2023-03-31T16:19:31;10.90;1.00
6178;DHT22;3122;48.208;11.174;2023-03-31T16:24:37;10.60;1.00
6178;DHT22;3122;48.208;11.174;2023-03-31T16:29:38;10.50;1.00
6178;DHT22;3122;48.208;11.174;2023-03-31T16:34:58;10.50;1.00
6178;DHT22;3122;48.208;11.174;2023-03-31T16:39:59;10.50;1.00
6178;DHT22;3122;48.208;11.174;2023-03-31T16:45:00;9.30;1.00
6178;DHT22;3122;48.208;11.174;2023-03-31T16:50:00;8.20;1.00
6178;DHT22;3122;48.208;11.174;2023-03-31T16:55:06;7.70;1.00
6178;DHT22;3122;48.208;11.174;2023-03-31T17:00:07;7.60;1.00
6178;DHT22;3122;48.208;11.174;2023-03-31T17:05:08;7.90;1.00
6178;DHT22;3122;48.208;11.174;2023-03-31T17:10:09;8.00;1.00
6178;DHT22;3122;48.208;11.174;2023-03-31T17:15:10;8.00;1.00
6178;DHT22;3122;48.208;11.174;2023-03-31T17:20:11;7.80;1.00
6178;DHT22;3122;48.208;11.174;2023-03-31T17:25:12;7.70;1.00
6178;DHT22;3122;48.208;11.174;2023-03-31T17:30:13;7.60;1.00
6178;DHT22;3122;48.208;11.174;2023-03-31T17:35:13;7.50;1.00
6178;DHT22;3122;48.208;11.174;2023-03-31T17:40:21;7.50;1.00
6178;DHT22;3122;48.208;11.174;2023-03-31T17:45:22;7.50;1.00
6178;DHT22;3122;48.208;11.174;2023-03-31T17:50:24;7.50;1.00
6178;DHT22;3122;48.208;11.174;2023-03-31T17:55:25;7.50;1.00
6178;DHT22;3122;48.208;11.174;2023-03-31T18:00:26;7.60;1.00
6178;DHT22;3122;48.208;11.174;2023-03-31T18:05:27;7.50;1.00
6178;DHT22;3122;48.208;11.174;2023-03-31T18:10:29;7.40;1.00
6178;DHT22;3122;48.208;11.174;2023-03-31T18:15:30;7.50;1.00
6178;DHT22;3122;48.208;11.174;2023-03-31T18:20:31;7.50;1.00
6178;DHT22;3122;48.208;11.174;2023-03-31T18:25:32;7.40;1.00
6178;DHT22;3122;48.208;11.174;2023-03-31T18:30:33;7.40;1.00
6178;DHT22;3122;48.208;11.174;2023-03-31T18:35:33;7.40;1.00
6178;DHT22;3122;48.208;11.174;2023-03-31T18:40:34;7.40;1.00
6178;DHT22;3122;48.208;11.174;2023-03-31T18:45:35;7.30;1.00
6178;DHT22;3122;48.208;11.174;2023-03-31T18:50:37;7.40;1.00
6178;DHT22;3122;48.208;11.174;2023-03-31T18:55:38;7.40;1.00
6178;DHT22;3122;48.208;11.174;2023-03-31T19:00:40;7.40;1.00
6178;DHT22;3122;48.208;11.174;2023-03-31T19:05:41;7.40;1.00
6178;DHT22;3122;48.208;11.174;2023-03-31T19:10:41;7.50;1.00
6178;DHT22;3122;48.208;11.174;2023-03-31T19:15:42;7.50;1.00
6178;DHT22;3122;48.208;11.174;2023-03-31T19:20:45;7.50;1.00
6178;DHT22;3122;48.208;11.174;2023-03-31T19:25:50;7.40;1.00
6178;DHT22;3122;48.208;11.174;2023-03-31T19:30:52;7.50;1.00
6178;DHT22;3122;48.208;11.174;2023-03-31T19:35:53;7.50;1.00
6178;DHT22;3122;48.208;11.174;2023-03-31T19:40:54;7.50;1.00
6178;DHT22;3122;48.208;11.174;2023-03-31T19:45:54;7.60;1.00
6178;DHT22;3122;48.208;11.174;2023-03-31T19:50:58;7.50;1.00
6178;DHT22;3122;48.208;11.174;2023-03-31T19:56:02;7.60;1.00
6178;DHT22;3122;48.208;11.174;2023-03-31T20:01:07;7.60;1.00
6178;DHT22;3122;48.208;11.174;2023-03-31T20:06:10;7.70;1.00
6178;DHT22;3122;48.208;11.174;2023-03-31T20:11:14;7.80;1.00
6178;DHT22;3122;48.208;11.174;2023-03-31T20:16:20;7.80;1.00
6178;DHT22;3122;48.208;11.174;2023-03-31T20:21:24;7.90;1.00
6178;DHT22;3122;48.208;11.174;2023-03-31T20:26:29;7.90;1.00
6178;DHT22;3122;48.208;11.174;2023-03-31T20:31:32;8.00;1.00
6178;DHT22;3122;48.208;11.174;2023-03-31T20:36:35;8.10;1.00
6178;DHT22;3122;48.208;11.174;2023-03-31T20:41:36;8.10;1.00
6178;DHT22;3122;48.208;11.174;2023-03-31T20:46:37;8.10;1.00
6178;DHT22;3122;48.208;11.174;2023-03-31T20:51:37;8.10;1.00
6178;DHT22;3122;48.208;11.174;2023-03-31T20:56:39;8.20;1.00
6178;DHT22;3122;48.208;11.174;2023-03-31T21:01:41;8.10;1.00
6178;DHT22;3122;48.208;11.174;2023-03-31T21:06:44;8.10;1.00
6178;DHT22;3122;48.208;11.174;2023-03-31T21:11:45;8.00;1.00
6178;DHT22;3122;48.208;11.174;2023-03-31T21:16:46;8.00;1.00
6178;DHT22;3122;48.208;11.174;2023-03-31T21:21:47;8.00;1.00
6178;DHT22;3122;48.208;11.174;2023-03-31T21:26:47;8.00;1.00
6178;DHT22;3122;48.208;11.174;2023-03-31T21:31:48;7.90;1.00
6178;DHT22;3122;48.208;11.174;2023-03-31T21:36:49;7.90;1.00
6178;DHT22;3122;48.208;11.174;2023-03-31T21:41:49;7.80;1.00
6178;DHT22;3122;48.208;11.174;2023-03-31T21:46:50;7.80;1.00
6178;DHT22;3122;48.208;11.174;2023-03-31T21:51:51;7.70;1.00
6178;DHT22;3122;48.208;11.174;2023-03-31T21:56:52;7.60;1.00
6178;DHT22;3122;48.208;11.174;2023-03-31T22:01:53;7.60;1.00
6178;DHT22;3122;48.208;11.174;2023-03-31T22:06:53;7.50;1.00
6178;DHT22;3122;48.208;11.174;2023-03-31T22:11:54;7.60;1.00
6178;DHT22;3122;48.208;11.174;2023-03-31T22:16:54;7.60;1.00
6178;DHT22;3122;48.208;11.174;2023-03-31T22:21:56;7.60;1.00
6178;DHT22;3122;48.208;11.174;2023-03-31T22:26:57;7.50;1.00
6178;DHT22;3122;48.208;11.174;2023-03-31T22:31:58;7.60;1.00
6178;DHT22;3122;48.208;11.174;2023-03-31T22:36:58;7.50;1.00
6178;DHT22;3122;48.208;11.174;2023-03-31T22:41:59;7.50;1.00
6178;DHT22;3122;48.208;11.174;2023-03-31T22:47:00;7.50;1.00
6178;DHT22;3122;48.208;11.174;2023-03-31T22:52:01;7.50;1.00
6178;DHT22;3122;48.208;11.174;2023-03-31T22:57:01;7.40;1.00
6178;DHT22;3122;48.208;11.174;2023-03-31T23:02:02;7.30;1.00
6178;DHT22;3122;48.208;11.174;2023-03-31T23:07:03;7.30;1.00
6178;DHT22;3122;48.208;11.174;2023-03-31T23:12:04;7.30;1.00
6178;DHT22;3122;48.208;11.174;2023-03-31T23:17:05;7.30;1.00
6178;DHT22;3122;48.208;11.174;2023-03-31T23:22:06;7.20;1.00
6178;DHT22;3122;48.208;11.174;2023-03-31T23:27:06;7.20;1.00
6178;DHT22;3122;48.208;11.174;2023-03-31T23:32:07;7.20;1.00
6178;DHT22;3122;48.208;11.174;2023-03-31T23:37:09;7.10;1.00
6178;DHT22;3122;48.208;11.174;2023-03-31T23:42:10;7.00;1.00
6178;DHT22;3122;48.208;11.174;2023-03-31T23:47:15;7.10;1.00
6178;DHT22;3122;48.208;11.174;2023-03-31T23:52:15;7.10;1.00
6178;DHT22;3122;48.208;11.174;2023-03-31T23:57:16;7.00;1.00
